Terminal Aerodrome Forecast
Issued by NWS

Home | Current Version | Previous Version | Text Only | Print | Product List | Glossary On
Versions: 1 2 3 4 5 6 7 8 9 10 11 12
000
FTUS46 KSTO 022323
TAFMHR
TAF
KMHR 022323Z 0300/0324 22009KT P6SM SCT250
      TEMPO 0300/0304 5SM HZ
     FM030600 16007KT P6SM SCT250
     FM031600 21007KT P6SM SKC=

USA.gov is the U.S. government's official web portal to all federal, state and local government web resources and services.